Pulau Tioman — 3EYO9 — position and weather

sailwx.info

Track history (hours):
 
Tides and Currents Weather Stations Pressure Air Temp Water Temp Dewpoint Dewpoint Depression Visibility Wind Speed Wind Dir Waves Ship Positions

Pulau Tioman

Last reported at 2016-Dec-23 21:30 UTC. Time now 2017-Jan-18 10:04 UTC.
Position N 35°19' E 139°43'.
Warning: this ship's position is 25 days out of date.

Length 120 m; draft 6.3 m.

Type: Cargo ship. MMSI: 356613000.

Date/timePositionNaut miles runAvg speedWind from/ knotsBaromVisibWave heightAir tempDewpointWater temp
2016-Dec-23 21:30N 35°19' E 139°43'7 7.9
2016-Dec-23 20:33N 35°26' E 139°42'0 0.0
2016-Dec-23 19:33N 35°26' E 139°42'0 0.0
2016-Dec-23 18:33N 35°26' E 139°42'0 0.0
2016-Dec-23 17:33N 35°26' E 139°42'0 0.0
2016-Dec-23 16:33N 35°26' E 139°42'0 0.1
2016-Dec-23 15:33N 35°26' E 139°42'0 0.0
2016-Dec-23 14:32N 35°26' E 139°42'0 0.0
2016-Dec-23 13:33N 35°26' E 139°42'0 0.0
2016-Dec-23 12:33N 35°26' E 139°42'0 0.0
2016-Dec-23 11:33N 35°26' E 139°42'0 0.0
2016-Dec-23 10:33N 35°26' E 139°42'0 0.0
2016-Dec-23 09:33N 35°26' E 139°42'0 0.0
2016-Dec-23 08:32N 35°26' E 139°42'0 0.0
2016-Dec-23 07:32N 35°26' E 139°42'0 0.0
2016-Dec-23 06:34N 35°26' E 139°42'1 1.0
2016-Dec-23 05:29N 35°27' E 139°41'0 0.0
2016-Dec-23 04:29N 35°27' E 139°41'0 0.0
2016-Dec-23 03:29N 35°27' E 139°41'0 0.0
2016-Dec-23 02:29N 35°27' E 139°41'0 0.0
2016-Dec-23 01:29N 35°27' E 139°41'0 0.0
2016-Dec-23 00:29N 35°27' E 139°41'0 0.0
2016-Dec-22 23:29N 35°27' E 139°41'0 0.0
2016-Dec-22 22:29N 35°27' E 139°41'0 0.0
2016-Dec-22 21:29N 35°27' E 139°41'0 0.0
2016-Dec-22 20:23N 35°27' E 139°41'0 0.0
2016-Dec-22 19:29N 35°27' E 139°41'0 0.0
2016-Dec-22 18:29N 35°27' E 139°41'0 0.0
2016-Dec-22 17:29N 35°27' E 139°41'0 0.0
2016-Dec-22 16:29N 35°27' E 139°41'0 0.0
2016-Dec-22 15:29N 35°27' E 139°41'0 0.0
2016-Dec-22 14:29N 35°27' E 139°41'0 0.0
2016-Dec-22 13:29N 35°27' E 139°41'0 0.0
2016-Dec-22 12:29N 35°27' E 139°41'0 0.0
2016-Dec-22 11:29N 35°27' E 139°41'0 0.0
2016-Dec-22 10:29N 35°27' E 139°41'0 0.0
2016-Dec-22 09:29N 35°27' E 139°41'0 0.0
2016-Dec-22 08:29N 35°27' E 139°41'0 0.0
2016-Dec-22 07:29N 35°27' E 139°41'0 0.0
2016-Dec-22 06:23N 35°27' E 139°41'0 0.0
2016-Dec-22 05:29N 35°27' E 139°41'0 0.0
2016-Dec-22 04:29N 35°27' E 139°41'0 0.0
2016-Dec-22 03:29N 35°27' E 139°41'0 0.0
2016-Dec-22 02:29N 35°27' E 139°41'0 0.0
2016-Dec-22 01:29N 35°27' E 139°41'0 0.0
2016-Dec-22 00:29N 35°27' E 139°41'0 0.0
2016-Dec-21 23:29N 35°27' E 139°41'0 0.0
2016-Dec-21 22:29N 35°27' E 139°41'2 1.6
2016-Dec-21 21:32N 35°26' E 139°42'0 0.0
2016-Dec-21 20:32N 35°26' E 139°42'0 0.0
2016-Dec-21 19:32N 35°26' E 139°42'0 0.0
2016-Dec-21 18:32N 35°26' E 139°42'0 0.1
2016-Dec-21 17:32N 35°26' E 139°42'0 0.0
2016-Dec-21 16:32N 35°26' E 139°42'0 0.0
2016-Dec-21 15:32N 35°26' E 139°42'0 0.1
2016-Dec-21 14:32N 35°26' E 139°42'0 0.0
2016-Dec-21 13:32N 35°26' E 139°42'0 0.1
2016-Dec-21 12:32N 35°26' E 139°42'2 2.3
2016-Dec-21 11:33N 35°24' E 139°43'1210.2
2016-Dec-21 10:24N 35°12' E 139°47'  
Track history (hours):
 
Tides and Currents Weather Stations Pressure Air Temp Water Temp Dewpoint Dewpoint Depression Visibility Wind Speed Wind Dir Waves Ship Positions

Pulau Tioman

Last reported at 2016-Dec-23 21:30 UTC. Time now 2017-Jan-18 10:04 UTC.
Position N 35°19' E 139°43'.
Warning: this ship's position is 25 days out of date.

Length 120 m; draft 6.3 m.

Type: Cargo ship. MMSI: 356613000.

Date/timePositionNaut miles runAvg speedWind from/ knotsBaromVisibWave heightAir tempDewpointWater temp
2016-Dec-23 21:30N 35°19' E 139°43'7 7.9
2016-Dec-23 20:33N 35°26' E 139°42'0 0.0
2016-Dec-23 19:33N 35°26' E 139°42'0 0.0
2016-Dec-23 18:33N 35°26' E 139°42'0 0.0
2016-Dec-23 17:33N 35°26' E 139°42'0 0.0
2016-Dec-23 16:33N 35°26' E 139°42'0 0.1
2016-Dec-23 15:33N 35°26' E 139°42'0 0.0
2016-Dec-23 14:32N 35°26' E 139°42'0 0.0
2016-Dec-23 13:33N 35°26' E 139°42'0 0.0
2016-Dec-23 12:33N 35°26' E 139°42'0 0.0
2016-Dec-23 11:33N 35°26' E 139°42'0 0.0
2016-Dec-23 10:33N 35°26' E 139°42'0 0.0
2016-Dec-23 09:33N 35°26' E 139°42'0 0.0
2016-Dec-23 08:32N 35°26' E 139°42'0 0.0
2016-Dec-23 07:32N 35°26' E 139°42'0 0.0
2016-Dec-23 06:34N 35°26' E 139°42'1 1.0
2016-Dec-23 05:29N 35°27' E 139°41'0 0.0
2016-Dec-23 04:29N 35°27' E 139°41'0 0.0
2016-Dec-23 03:29N 35°27' E 139°41'0 0.0
2016-Dec-23 02:29N 35°27' E 139°41'0 0.0
2016-Dec-23 01:29N 35°27' E 139°41'0 0.0
2016-Dec-23 00:29N 35°27' E 139°41'0 0.0
2016-Dec-22 23:29N 35°27' E 139°41'0 0.0
2016-Dec-22 22:29N 35°27' E 139°41'0 0.0
2016-Dec-22 21:29N 35°27' E 139°41'0 0.0
2016-Dec-22 20:23N 35°27' E 139°41'0 0.0
2016-Dec-22 19:29N 35°27' E 139°41'0 0.0
2016-Dec-22 18:29N 35°27' E 139°41'0 0.0
2016-Dec-22 17:29N 35°27' E 139°41'0 0.0
2016-Dec-22 16:29N 35°27' E 139°41'0 0.0
2016-Dec-22 15:29N 35°27' E 139°41'0 0.0
2016-Dec-22 14:29N 35°27' E 139°41'0 0.0
2016-Dec-22 13:29N 35°27' E 139°41'0 0.0
2016-Dec-22 12:29N 35°27' E 139°41'0 0.0
2016-Dec-22 11:29N 35°27' E 139°41'0 0.0
2016-Dec-22 10:29N 35°27' E 139°41'0 0.0
2016-Dec-22 09:29N 35°27' E 139°41'0 0.0
2016-Dec-22 08:29N 35°27' E 139°41'0 0.0
2016-Dec-22 07:29N 35°27' E 139°41'0 0.0
2016-Dec-22 06:23N 35°27' E 139°41'0 0.0
2016-Dec-22 05:29N 35°27' E 139°41'0 0.0
2016-Dec-22 04:29N 35°27' E 139°41'0 0.0
2016-Dec-22 03:29N 35°27' E 139°41'0 0.0
2016-Dec-22 02:29N 35°27' E 139°41'0 0.0
2016-Dec-22 01:29N 35°27' E 139°41'0 0.0
2016-Dec-22 00:29N 35°27' E 139°41'0 0.0
2016-Dec-21 23:29N 35°27' E 139°41'0 0.0
2016-Dec-21 22:29N 35°27' E 139°41'2 1.6
2016-Dec-21 21:32N 35°26' E 139°42'0 0.0
2016-Dec-21 20:32N 35°26' E 139°42'0 0.0
2016-Dec-21 19:32N 35°26' E 139°42'0 0.0
2016-Dec-21 18:32N 35°26' E 139°42'0 0.1
2016-Dec-21 17:32N 35°26' E 139°42'0 0.0
2016-Dec-21 16:32N 35°26' E 139°42'0 0.0
2016-Dec-21 15:32N 35°26' E 139°42'0 0.1
2016-Dec-21 14:32N 35°26' E 139°42'0 0.0
2016-Dec-21 13:32N 35°26' E 139°42'0 0.1
2016-Dec-21 12:32N 35°26' E 139°42'2 2.3
2016-Dec-21 11:33N 35°24' E 139°43'1210.2
2016-Dec-21 10:24N 35°12' E 139°47'  

Dump ship's entire track history